createdAt,value
2018-12-18T00:00:05.941Z,59.50
2018-12-18T00:02:35.505Z,53.43
2018-12-18T00:05:09.944Z,49.87
2018-12-18T00:07:38.635Z,48.20
2018-12-18T00:10:09.043Z,54.67
2018-12-18T00:12:38.910Z,57.40
2018-12-18T00:15:07.689Z,50.93
2018-12-18T00:17:36.490Z,46.13
2018-12-18T00:20:05.682Z,52.47
2018-12-18T00:22:34.273Z,49.97
2018-12-18T00:25:03.131Z,48.33
2018-12-18T00:27:31.648Z,48.97
2018-12-18T00:30:00.616Z,45.03
2018-12-18T00:32:29.333Z,52.13
2018-12-18T00:34:57.919Z,50.93
2018-12-18T00:37:26.766Z,48.93
2018-12-18T00:39:55.251Z,46.07
2018-12-18T00:42:23.798Z,52.33
2018-12-18T00:44:52.393Z,52.43
2018-12-18T00:47:20.871Z,47.27
2018-12-18T00:49:49.331Z,46.93
2018-12-18T00:52:17.877Z,52.87
2018-12-18T00:54:46.407Z,51.13
2018-12-18T00:57:15.626Z,45.00
2018-12-18T00:59:44.325Z,42.30
2018-12-18T01:02:12.817Z,47.73
2018-12-18T01:04:41.402Z,55.13
2018-12-18T01:07:10.049Z,50.13
2018-12-18T01:09:38.978Z,49.23
2018-12-18T01:12:07.539Z,52.07
2018-12-18T01:14:36.461Z,53.40
2018-12-18T01:17:05.035Z,50.87
2018-12-18T01:19:33.596Z,56.87
2018-12-18T01:22:02.821Z,48.73
2018-12-18T01:24:31.661Z,53.30
2018-12-18T01:27:00.297Z,55.23
2018-12-18T01:29:29.603Z,52.80
2018-12-18T01:31:59.454Z,48.20
2018-12-18T01:34:28.033Z,54.27
2018-12-18T01:36:56.572Z,50.73
2018-12-18T01:39:25.735Z,48.83
2018-12-18T01:41:54.318Z,62.57
2018-12-18T01:44:23.282Z,56.37
2018-12-18T01:46:52.714Z,52.33
2018-12-18T01:49:21.277Z,51.77
2018-12-18T01:51:49.803Z,49.37
2018-12-18T01:54:18.286Z,55.37
2018-12-18T01:56:46.787Z,61.17
2018-12-18T01:59:15.963Z,57.57
2018-12-18T02:01:44.607Z,57.73
2018-12-18T02:04:13.280Z,50.87
2018-12-18T02:06:41.864Z,50.80
2018-12-18T02:09:11.439Z,45.60
2018-12-18T02:11:40.801Z,48.53
2018-12-18T02:14:09.883Z,51.13
2018-12-18T02:16:38.754Z,55.27
2018-12-18T02:19:07.839Z,63.50
2018-12-18T02:21:36.434Z,61.10
2018-12-18T02:24:04.966Z,57.00
2018-12-18T02:26:33.874Z,54.17
2018-12-18T02:29:02.505Z,54.23
2018-12-18T02:31:31.834Z,62.37
2018-12-18T02:34:00.419Z,51.33
2018-12-18T02:36:29.490Z,59.80
2018-12-18T02:38:58.541Z,60.40
2018-12-18T02:41:27.097Z,59.93
2018-12-18T02:43:56.165Z,58.00
2018-12-18T02:46:24.817Z,54.87
2018-12-18T02:48:53.335Z,51.03
2018-12-18T02:51:22.309Z,51.93
2018-12-18T02:53:50.861Z,53.83
2018-12-18T02:56:19.756Z,50.90
2018-12-18T02:58:48.338Z,51.43
2018-12-18T03:01:16.846Z,50.93
2018-12-18T03:03:45.365Z,53.33
2018-12-18T03:06:13.859Z,55.53
2018-12-18T03:08:42.755Z,53.57
2018-12-18T03:11:15.483Z,51.77
2018-12-18T03:13:44.566Z,51.20
2018-12-18T03:16:14.010Z,49.30
2018-12-18T03:18:42.573Z,49.07
2018-12-18T03:21:11.102Z,49.97
2018-12-18T03:23:40.010Z,55.17
2018-12-18T03:26:08.635Z,55.60
2018-12-18T03:28:37.397Z,48.63
2018-12-18T03:31:06.102Z,47.43
2018-12-18T03:33:34.581Z,52.30
2018-12-18T03:36:03.249Z,57.60
2018-12-18T03:38:31.772Z,55.17
2018-12-18T03:41:00.307Z,50.53
2018-12-18T03:43:29.158Z,56.63
2018-12-18T03:45:58.118Z,56.77
2018-12-18T03:48:26.689Z,52.80
2018-12-18T03:50:55.186Z,49.50
2018-12-18T03:53:23.681Z,51.47
2018-12-18T03:55:52.217Z,50.23
2018-12-18T03:58:20.871Z,55.70
2018-12-18T04:00:49.354Z,49.07
2018-12-18T04:03:17.840Z,54.87
2018-12-18T04:05:46.391Z,52.10
2018-12-18T04:08:15.447Z,45.53
2018-12-18T04:10:44.492Z,53.00
2018-12-18T04:13:13.254Z,50.53
2018-12-18T04:15:41.839Z,51.60
2018-12-18T04:18:10.403Z,46.87
2018-12-18T04:20:39.191Z,55.43
2018-12-18T04:23:07.831Z,52.03
2018-12-18T04:25:36.597Z,54.07
2018-12-18T04:28:05.769Z,50.67
2018-12-18T04:30:34.240Z,42.23
2018-12-18T04:33:02.747Z,45.43
2018-12-18T04:35:31.307Z,47.80
2018-12-18T04:37:59.817Z,45.43
2018-12-18T04:40:28.279Z,40.90
2018-12-18T04:42:56.718Z,44.73
2018-12-18T04:45:25.276Z,42.43
2018-12-18T04:47:53.774Z,44.37
2018-12-18T04:50:29.398Z,43.80
2018-12-18T04:52:57.872Z,43.03
2018-12-18T04:55:26.442Z,36.27
2018-12-18T04:57:54.946Z,38.87
2018-12-18T05:00:23.534Z,35.87
2018-12-18T05:02:52.127Z,34.07
2018-12-18T05:05:21.313Z,35.80
2018-12-18T05:07:50.245Z,36.60
2018-12-18T05:10:18.746Z,38.93
2018-12-18T05:12:47.282Z,42.13
2018-12-18T05:15:16.153Z,44.17
2018-12-18T05:17:44.644Z,38.70
2018-12-18T05:20:14.137Z,41.00
2018-12-18T05:22:43.223Z,33.50
2018-12-18T05:25:11.675Z,34.90
2018-12-18T05:27:40.746Z,34.00
2018-12-18T05:30:09.436Z,37.50
2018-12-18T05:32:41.916Z,35.50
2018-12-18T05:35:10.612Z,35.63
2018-12-18T05:37:39.162Z,42.43
2018-12-18T05:40:08.965Z,33.37
2018-12-18T05:42:37.718Z,36.57
2018-12-18T05:45:06.337Z,39.10
2018-12-18T05:47:35.323Z,31.80
2018-12-18T05:50:04.052Z,39.50
2018-12-18T05:52:32.907Z,38.10
2018-12-18T05:55:01.764Z,35.23
2018-12-18T05:57:30.514Z,41.67
2018-12-18T05:59:59.058Z,37.00
2018-12-18T06:02:28.195Z,32.67
2018-12-18T06:05:03.014Z,33.07
2018-12-18T06:07:28.681Z,32.53
2018-12-18T06:09:57.173Z,31.13
2018-12-18T06:12:25.881Z,30.33
2018-12-18T06:14:54.764Z,31.73
2018-12-18T06:17:23.862Z,30.93
2018-12-18T06:19:53.123Z,30.67
2018-12-18T06:22:21.826Z,30.17
2018-12-18T06:24:50.421Z,27.80
2018-12-18T06:27:18.907Z,39.17
2018-12-18T06:29:47.988Z,29.10
2018-12-18T06:32:16.548Z,31.90
2018-12-18T06:34:45.809Z,34.07
2018-12-18T06:37:14.445Z,31.73
2018-12-18T06:39:42.939Z,27.53
2018-12-18T06:42:12.068Z,31.43
2018-12-18T06:44:40.883Z,32.53
2018-12-18T06:47:09.496Z,27.13
2018-12-18T06:49:38.117Z,33.43
2018-12-18T06:52:06.690Z,33.00
2018-12-18T06:54:36.002Z,30.77
2018-12-18T06:57:05.279Z,32.27
2018-12-18T06:59:33.860Z,29.37
2018-12-18T07:02:02.430Z,28.57
2018-12-18T07:04:31.890Z,34.40
2018-12-18T07:07:00.683Z,37.13
2018-12-18T07:09:29.572Z,31.17
2018-12-18T07:11:58.309Z,28.70
2018-12-18T07:14:27.981Z,27.20
2018-12-18T07:16:56.465Z,33.30
2018-12-18T07:19:25.500Z,32.37
2018-12-18T07:21:55.190Z,32.77
2018-12-18T07:24:23.705Z,35.37
2018-12-18T07:26:52.250Z,32.97
2018-12-18T07:29:20.762Z,32.57
2018-12-18T07:31:49.348Z,32.43
2018-12-18T07:34:17.925Z,31.80
2018-12-18T07:36:46.711Z,33.73
2018-12-18T07:39:15.701Z,32.80
2018-12-18T07:41:44.346Z,28.40
2018-12-18T07:44:12.853Z,27.67
2018-12-18T07:46:41.414Z,30.47
2018-12-18T07:49:09.969Z,33.80
2018-12-18T07:51:39.262Z,29.80
2018-12-18T07:54:07.852Z,32.27
2018-12-18T07:56:37.006Z,29.67
2018-12-18T07:59:06.736Z,29.27
2018-12-18T08:01:36.026Z,28.57
2018-12-18T08:04:04.683Z,25.13
2018-12-18T08:06:33.791Z,29.33
2018-12-18T08:09:02.628Z,41.17
2018-12-18T08:11:31.438Z,27.47
2018-12-18T08:13:59.930Z,23.00
2018-12-18T08:16:28.699Z,22.40
2018-12-18T08:18:57.557Z,19.67
2018-12-18T08:21:26.153Z,39.37
2018-12-18T08:23:54.709Z,27.37
2018-12-18T08:26:23.242Z,19.47
2018-12-18T08:28:52.076Z,19.30
2018-12-18T08:31:20.652Z,17.40
2018-12-18T08:33:49.666Z,14.37
2018-12-18T08:36:18.890Z,20.60
2018-12-18T08:38:48.285Z,18.93
2018-12-18T08:41:17.185Z,21.17
2018-12-18T08:43:46.696Z,16.57
2018-12-18T08:46:19.006Z,19.70
2018-12-18T08:48:47.896Z,21.27
2018-12-18T08:51:16.474Z,23.90
2018-12-18T08:53:46.757Z,20.00
2018-12-18T08:56:16.085Z,23.93
2018-12-18T08:58:44.926Z,26.63
2018-12-18T09:01:13.500Z,23.53
2018-12-18T09:03:43.146Z,26.30
2018-12-18T09:06:11.812Z,29.60
2018-12-18T09:08:40.386Z,27.97
2018-12-18T09:11:08.879Z,23.23
2018-12-18T09:13:37.468Z,25.47
2018-12-18T09:16:10.247Z,30.00
2018-12-18T09:18:38.739Z,29.07
2018-12-18T09:21:07.275Z,25.87
2018-12-18T09:23:35.793Z,26.90
2018-12-18T09:26:04.892Z,26.00
2018-12-18T09:28:34.773Z,30.37
2018-12-18T09:31:03.380Z,24.47
2018-12-18T09:33:31.914Z,23.03
2018-12-18T09:36:00.576Z,25.20
2018-12-18T09:38:34.876Z,20.67
2018-12-18T09:41:09.830Z,25.17
2018-12-18T09:43:43.906Z,30.47
2018-12-18T09:46:12.421Z,21.43
2018-12-18T09:48:40.953Z,21.63
2018-12-18T09:51:09.612Z,20.03
2018-12-18T09:53:38.396Z,19.77
2018-12-18T09:56:07.030Z,26.73
2018-12-18T09:58:35.490Z,60.40
2018-12-18T10:01:04.155Z,16.60
2018-12-18T10:03:33.596Z,17.83
2018-12-18T10:06:02.851Z,14.77
2018-12-18T10:08:31.821Z,20.90
2018-12-18T10:11:00.505Z,18.20
2018-12-18T10:13:29.135Z,21.57
2018-12-18T10:15:57.985Z,15.50
2018-12-18T10:18:26.786Z,17.20
2018-12-18T10:20:55.808Z,18.20
2018-12-18T10:23:25.237Z,16.83
2018-12-18T10:25:54.717Z,16.93
2018-12-18T10:28:23.395Z,15.37
2018-12-18T10:30:52.094Z,16.80
2018-12-18T10:33:21.685Z,18.27
2018-12-18T10:35:50.357Z,16.00
2018-12-18T10:38:19.363Z,15.07
2018-12-18T10:40:48.247Z,14.50
2018-12-18T10:43:16.989Z,16.03
2018-12-18T10:45:45.948Z,16.57
2018-12-18T10:48:14.647Z,15.17
2018-12-18T10:50:43.736Z,15.73
2018-12-18T10:53:12.528Z,13.40
2018-12-18T10:55:41.804Z,12.37
2018-12-18T10:58:11.762Z,11.97
2018-12-18T11:00:46.335Z,13.53
2018-12-18T11:03:15.551Z,15.37
2018-12-18T11:05:45.023Z,13.77
2018-12-18T11:08:13.883Z,14.30
2018-12-18T11:10:42.724Z,16.17
2018-12-18T11:13:18.101Z,21.03
2018-12-18T11:15:48.226Z,9.80
2018-12-18T11:18:18.222Z,11.87
2018-12-18T11:20:47.185Z,11.87
2018-12-18T11:23:15.855Z,14.13
2018-12-18T11:25:44.799Z,11.37
2018-12-18T11:28:14.100Z,9.60
2018-12-18T11:30:42.671Z,9.30
2018-12-18T11:33:11.506Z,11.47
2018-12-18T11:35:40.946Z,10.80
2018-12-18T11:38:10.329Z,14.43
2018-12-18T11:40:39.090Z,10.20
2018-12-18T11:43:07.884Z,9.53
2018-12-18T11:45:36.503Z,10.80
2018-12-18T11:48:06.638Z,11.23
2018-12-18T11:50:35.255Z,11.53
2018-12-18T11:53:04.478Z,9.87
2018-12-18T11:55:33.075Z,9.20
2018-12-18T11:58:02.597Z,10.83
2018-12-18T12:00:31.261Z,9.07
2018-12-18T12:02:59.965Z,7.77
2018-12-18T12:05:28.643Z,8.43
2018-12-18T12:07:58.467Z,11.63
2018-12-18T12:10:27.241Z,8.93
2018-12-18T12:12:56.002Z,10.47
2018-12-18T12:15:24.927Z,6.37
2018-12-18T12:17:54.797Z,9.60
2018-12-18T12:20:23.947Z,13.63
2018-12-18T12:22:52.481Z,8.97
2018-12-18T12:25:21.197Z,10.50
2018-12-18T12:27:55.479Z,10.27
2018-12-18T12:30:24.201Z,9.40
2018-12-18T12:32:52.862Z,13.30
2018-12-18T12:35:21.510Z,14.03
2018-12-18T12:37:50.260Z,11.90
2018-12-18T12:40:19.613Z,12.67
2018-12-18T12:42:48.396Z,12.70
2018-12-18T12:45:18.110Z,10.50
2018-12-18T12:47:51.505Z,10.50
2018-12-18T12:50:21.150Z,12.70
2018-12-18T12:52:50.300Z,11.10
2018-12-18T12:55:18.919Z,11.50
2018-12-18T12:57:47.708Z,11.97
2018-12-18T13:00:16.372Z,11.50
2018-12-18T13:02:45.097Z,9.40
2018-12-18T13:05:14.597Z,14.77
2018-12-18T13:07:44.401Z,8.53
2018-12-18T13:10:13.868Z,10.87
2018-12-18T13:12:42.837Z,9.63
2018-12-18T13:15:12.549Z,11.67
2018-12-18T13:17:41.535Z,8.93
2018-12-18T13:20:10.076Z,9.10
2018-12-18T13:22:39.259Z,15.20
2018-12-18T13:25:08.060Z,11.40
2018-12-18T13:27:37.441Z,8.43
2018-12-18T13:30:06.882Z,6.73
2018-12-18T13:32:35.581Z,7.10
2018-12-18T13:35:04.959Z,9.53
2018-12-18T13:37:33.864Z,9.67
2018-12-18T13:40:02.484Z,7.33
2018-12-18T13:42:31.103Z,9.70
2018-12-18T13:44:59.858Z,6.40
2018-12-18T13:47:28.500Z,9.90
2018-12-18T13:49:57.503Z,4.97
2018-12-18T13:52:27.145Z,8.73
2018-12-18T13:54:56.711Z,7.03
2018-12-18T13:57:25.320Z,11.30
2018-12-18T13:59:54.007Z,11.37
2018-12-18T14:02:22.957Z,12.17
2018-12-18T14:04:51.715Z,9.43
2018-12-18T14:07:20.765Z,9.03
2018-12-18T14:09:50.102Z,9.53
2018-12-18T14:12:19.803Z,14.67
2018-12-18T14:14:49.500Z,7.20
2018-12-18T14:17:18.188Z,5.57
2018-12-18T14:19:47.324Z,8.97
2018-12-18T14:22:19.010Z,7.70
2018-12-18T14:24:48.003Z,9.20
2018-12-18T14:27:16.907Z,9.80
2018-12-18T14:29:45.627Z,6.80
2018-12-18T14:32:14.299Z,3.57
2018-12-18T14:34:44.252Z,7.27
2018-12-18T14:37:13.712Z,8.03
2018-12-18T14:39:42.435Z,6.60
2018-12-18T14:42:11.064Z,5.90
2018-12-18T14:44:39.822Z,8.87
2018-12-18T14:47:09.130Z,8.60
2018-12-18T14:49:37.723Z,12.10
2018-12-18T14:52:06.303Z,6.57
2018-12-18T14:54:35.842Z,6.37
2018-12-18T14:57:04.548Z,11.97
2018-12-18T14:59:34.012Z,6.97
2018-12-18T15:02:02.823Z,9.47
2018-12-18T15:04:32.291Z,10.47
2018-12-18T15:07:03.058Z,5.83
2018-12-18T15:09:32.060Z,9.13
2018-12-18T15:12:01.635Z,9.97
2018-12-18T15:14:30.482Z,9.03
2018-12-18T15:16:59.136Z,6.70
2018-12-18T15:19:28.534Z,5.83
2018-12-18T15:21:57.221Z,5.37
2018-12-18T15:24:25.819Z,10.83
2018-12-18T15:26:55.011Z,8.63
2018-12-18T15:29:25.375Z,8.07
2018-12-18T15:31:54.621Z,7.40
2018-12-18T15:34:23.635Z,6.83
2018-12-18T15:36:52.469Z,9.97
2018-12-18T15:39:21.863Z,6.60
2018-12-18T15:41:50.581Z,6.73
2018-12-18T15:44:19.707Z,5.80
2018-12-18T15:46:50.221Z,11.93
2018-12-18T15:49:20.569Z,7.97
2018-12-18T15:51:49.424Z,6.83
2018-12-18T15:54:18.026Z,7.13
2018-12-18T15:56:47.425Z,4.63
2018-12-18T15:59:16.198Z,5.90
2018-12-18T16:01:45.151Z,5.53
2018-12-18T16:04:15.378Z,3.70
2018-12-18T16:06:44.933Z,8.37
2018-12-18T16:09:13.741Z,7.23
2018-12-18T16:11:43.161Z,4.97
2018-12-18T16:14:11.745Z,5.07
2018-12-18T16:16:41.478Z,4.87
2018-12-18T16:19:10.798Z,5.23
2018-12-18T16:21:40.658Z,5.73
2018-12-18T16:24:09.633Z,8.47
2018-12-18T16:26:38.220Z,5.73
2018-12-18T16:29:06.829Z,8.97
2018-12-18T16:31:35.418Z,6.27
2018-12-18T16:34:04.490Z,4.17
2018-12-18T16:36:33.806Z,5.53
2018-12-18T16:39:05.800Z,6.63
2018-12-18T16:41:34.476Z,6.10
2018-12-18T16:44:03.887Z,5.60
2018-12-18T16:46:33.404Z,4.80
2018-12-18T16:49:01.837Z,3.20
2018-12-18T16:51:31.534Z,8.80
2018-12-18T16:54:00.806Z,2.90
2018-12-18T16:56:29.863Z,4.70
2018-12-18T16:58:58.896Z,3.17
2018-12-18T17:01:27.654Z,3.87
2018-12-18T17:03:56.313Z,4.27
2018-12-18T17:06:25.228Z,3.20
2018-12-18T17:08:54.197Z,4.47
2018-12-18T17:11:23.189Z,4.30
2018-12-18T17:13:52.581Z,5.83
2018-12-18T17:16:21.461Z,7.27
2018-12-18T17:18:50.348Z,5.00
2018-12-18T17:21:22.346Z,4.20
2018-12-18T17:23:50.943Z,3.17
2018-12-18T17:26:19.996Z,6.20
2018-12-18T17:28:49.370Z,8.23
2018-12-18T17:31:18.034Z,4.67
2018-12-18T17:33:47.448Z,16.53
2018-12-18T17:36:15.947Z,5.23
2018-12-18T17:38:45.229Z,4.90
2018-12-18T17:41:14.600Z,3.07
2018-12-18T17:43:43.460Z,4.17
2018-12-18T17:46:13.457Z,4.37
2018-12-18T17:48:43.303Z,5.70
2018-12-18T17:51:12.531Z,5.90
2018-12-18T17:53:43.090Z,6.27
2018-12-18T17:56:12.125Z,4.80
2018-12-18T17:58:40.726Z,5.27
2018-12-18T18:01:10.854Z,5.47
2018-12-18T18:03:39.919Z,6.77
2018-12-18T18:06:08.450Z,4.47
2018-12-18T18:08:36.946Z,8.57
2018-12-18T18:11:05.894Z,3.63
2018-12-18T18:13:35.491Z,5.07
2018-12-18T18:16:04.152Z,8.70
2018-12-18T18:18:32.754Z,6.13
2018-12-18T18:21:01.390Z,8.70
2018-12-18T18:23:31.963Z,6.07
2018-12-18T18:26:00.797Z,5.03
2018-12-18T18:28:29.274Z,5.33
2018-12-18T18:30:58.623Z,4.60
2018-12-18T18:33:27.295Z,3.83
2018-12-18T18:35:57.424Z,5.00
2018-12-18T18:38:26.245Z,5.70
2018-12-18T18:40:55.319Z,5.27
2018-12-18T18:43:25.056Z,4.63
2018-12-18T18:45:54.839Z,4.50
2018-12-18T18:48:24.145Z,4.93
2018-12-18T18:50:53.898Z,5.83
2018-12-18T18:53:23.521Z,3.83
2018-12-18T18:55:52.196Z,3.80
2018-12-18T18:58:20.920Z,3.70
2018-12-18T19:00:49.517Z,5.53
2018-12-18T19:03:18.238Z,5.37
2018-12-18T19:05:46.902Z,5.47
2018-12-18T19:08:16.149Z,4.23
2018-12-18T19:10:45.060Z,5.23
2018-12-18T19:13:14.552Z,8.73
2018-12-18T19:15:43.659Z,4.83
2018-12-18T19:18:12.313Z,3.53
2018-12-18T19:20:41.399Z,8.70
2018-12-18T19:23:09.963Z,5.93
2018-12-18T19:25:38.601Z,8.37
2018-12-18T19:28:07.637Z,6.20
2018-12-18T19:30:37.097Z,5.73
2018-12-18T19:33:06.118Z,4.90
2018-12-18T19:35:35.498Z,5.30
2018-12-18T19:38:03.997Z,4.33
2018-12-18T19:40:33.089Z,5.77
2018-12-18T19:43:01.960Z,11.13
2018-12-18T19:45:30.469Z,4.60
2018-12-18T19:47:59.996Z,4.47
2018-12-18T19:50:28.517Z,8.87
2018-12-18T19:52:57.107Z,4.00
2018-12-18T19:55:26.071Z,4.80
2018-12-18T19:57:55.741Z,5.23
2018-12-18T20:00:24.482Z,4.17
2018-12-18T20:02:53.618Z,8.27
2018-12-18T20:05:22.335Z,4.33
2018-12-18T20:07:50.832Z,4.80
2018-12-18T20:10:19.374Z,4.07
2018-12-18T20:12:48.343Z,4.50
2018-12-18T20:15:16.875Z,5.40
2018-12-18T20:17:45.437Z,4.50
2018-12-18T20:20:14.307Z,4.53
2018-12-18T20:22:43.180Z,5.00
2018-12-18T20:25:11.855Z,5.27
2018-12-18T20:27:40.868Z,5.00
2018-12-18T20:30:09.686Z,4.67
2018-12-18T20:32:39.050Z,4.27
2018-12-18T20:35:07.682Z,4.60
2018-12-18T20:37:36.401Z,5.53
2018-12-18T20:40:06.768Z,4.50
2018-12-18T20:42:36.079Z,5.57
2018-12-18T20:45:05.591Z,7.47
2018-12-18T20:47:34.692Z,4.50
2018-12-18T20:50:03.422Z,4.90
2018-12-18T20:52:32.319Z,6.80
2018-12-18T20:55:01.004Z,4.40
2018-12-18T20:57:30.117Z,4.47
2018-12-18T20:59:59.971Z,5.13
2018-12-18T21:02:29.906Z,4.80
2018-12-18T21:04:59.565Z,5.90
2018-12-18T21:07:28.262Z,4.37
2018-12-18T21:09:56.812Z,5.83
2018-12-18T21:12:25.455Z,6.30
2018-12-18T21:15:00.547Z,7.37
2018-12-18T21:17:25.538Z,6.90
2018-12-18T21:19:54.834Z,5.43
2018-12-18T21:22:23.449Z,4.80
2018-12-18T21:24:52.548Z,4.70
2018-12-18T21:27:22.036Z,5.53
2018-12-18T21:29:50.789Z,7.20
2018-12-18T21:32:19.411Z,5.20
2018-12-18T21:34:47.974Z,5.90
2018-12-18T21:37:16.616Z,5.20
2018-12-18T21:39:45.654Z,5.03
2018-12-18T21:42:14.408Z,6.07
2018-12-18T21:44:43.121Z,6.70
2018-12-18T21:47:11.696Z,4.97
2018-12-18T21:49:40.508Z,5.93
2018-12-18T21:52:09.548Z,5.10
2018-12-18T21:54:38.127Z,4.93
2018-12-18T21:57:06.774Z,5.83
2018-12-18T21:59:35.309Z,6.40
2018-12-18T22:02:04.347Z,5.03
2018-12-18T22:04:32.944Z,4.70
2018-12-18T22:07:01.524Z,8.03
2018-12-18T22:09:30.217Z,5.37
2018-12-18T22:11:58.753Z,4.63
2018-12-18T22:14:27.779Z,5.53
2018-12-18T22:16:56.589Z,5.70
2018-12-18T22:19:25.221Z,5.23
2018-12-18T22:21:54.533Z,6.93
2018-12-18T22:24:23.366Z,5.50
2018-12-18T22:26:51.985Z,5.67
2018-12-18T22:29:20.577Z,5.47
2018-12-18T22:31:49.284Z,7.63
2018-12-18T22:34:17.904Z,5.40
2018-12-18T22:36:46.626Z,6.53
2018-12-18T22:39:15.685Z,6.00
2018-12-18T22:41:44.285Z,5.80
2018-12-18T22:44:13.070Z,5.40
2018-12-18T22:46:41.616Z,6.40
2018-12-18T22:49:10.200Z,6.27
2018-12-18T22:51:38.861Z,5.80
2018-12-18T22:54:07.481Z,5.93
2018-12-18T22:56:37.536Z,6.03
2018-12-18T22:59:06.172Z,5.53
2018-12-18T23:01:41.137Z,6.23
2018-12-18T23:04:09.813Z,6.13
2018-12-18T23:06:38.431Z,6.00
2018-12-18T23:09:11.413Z,5.73
2018-12-18T23:11:40.076Z,7.10
2018-12-18T23:14:09.353Z,6.00
2018-12-18T23:16:38.332Z,5.67
2018-12-18T23:19:07.508Z,7.23
2018-12-18T23:21:36.752Z,5.27
2018-12-18T23:24:05.647Z,6.23
2018-12-18T23:26:34.245Z,6.77
2018-12-18T23:29:02.817Z,5.50
2018-12-18T23:31:31.841Z,5.70
2018-12-18T23:34:00.732Z,5.23
2018-12-18T23:36:29.916Z,5.57
2018-12-18T23:38:58.544Z,5.97
2018-12-18T23:41:27.096Z,6.70
2018-12-18T23:43:55.676Z,5.97
2018-12-18T23:46:24.301Z,8.30
2018-12-18T23:48:53.619Z,5.93
2018-12-18T23:51:22.521Z,7.30
2018-12-18T23:53:51.178Z,6.37
2018-12-18T23:56:19.707Z,6.40
2018-12-18T23:58:48.768Z,6.33
